createdAt,value
2023-03-14T00:00:27.957Z,96250.75
2023-03-14T00:02:58.176Z,96235.28
2023-03-14T00:05:29.468Z,96237.34
2023-03-14T00:07:59.659Z,96228.94
2023-03-14T00:10:28.417Z,96239.06
2023-03-14T00:12:58.428Z,96235.19
2023-03-14T00:15:28.997Z,96227.56
2023-03-14T00:17:58.124Z,96210.88
2023-03-14T00:20:27.015Z,96223.94
2023-03-14T00:22:57.040Z,96220.78
2023-03-14T00:25:27.955Z,96216.31
2023-03-14T00:27:57.875Z,96210.53
2023-03-14T00:30:27.379Z,96207.38
2023-03-14T00:32:57.261Z,96216.44
2023-03-14T00:35:25.685Z,96229.06
2023-03-14T00:37:55.304Z,96227.16
2023-03-14T00:40:24.658Z,96219.53
2023-03-14T00:42:55.962Z,96224.53
2023-03-14T00:45:25.956Z,96213.84
2023-03-14T00:47:56.526Z,96212.03
2023-03-14T00:50:26.462Z,96208.41
2023-03-14T00:52:56.883Z,96207.81
2023-03-14T00:55:27.065Z,96206.78
2023-03-14T00:57:58.521Z,96216.22
2023-03-14T01:00:27.418Z,96220.44
2023-03-14T01:02:57.410Z,96213.63
2023-03-14T01:05:27.797Z,96215.91
2023-03-14T01:07:57.668Z,96218.97
2023-03-14T01:10:27.222Z,96212.16
2023-03-14T01:12:58.782Z,96211.81
2023-03-14T01:15:29.083Z,96217.28
2023-03-14T01:17:58.522Z,96215.69
2023-03-14T01:20:27.429Z,96227.75
2023-03-14T01:22:56.620Z,96226.16
2023-03-14T01:25:26.052Z,96222.28
2023-03-14T01:27:57.322Z,96225.34
2023-03-14T01:30:26.721Z,96221.94
2023-03-14T01:32:57.873Z,96224.00
2023-03-14T01:35:26.936Z,96234.19
2023-03-14T01:37:57.019Z,96231.59
2023-03-14T01:40:26.386Z,96213.22
2023-03-14T01:43:09.386Z,96205.94
2023-03-14T01:46:22.813Z,96196.97
2023-03-14T01:49:04.290Z,96206.06
2023-03-14T01:51:41.979Z,96202.66
2023-03-14T01:54:19.440Z,96205.03
2023-03-14T01:56:55.538Z,96187.56
2023-03-14T01:59:26.929Z,96193.78
2023-03-14T02:01:59.133Z,96184.94
2023-03-14T02:04:33.704Z,96177.88
2023-03-14T02:07:11.379Z,96164.81
2023-03-14T02:09:43.334Z,96158.25
2023-03-14T02:12:16.602Z,96163.25
2023-03-14T02:14:49.197Z,96145.75
2023-03-14T02:17:21.016Z,96148.69
2023-03-14T02:20:13.822Z,96144.16
2023-03-14T02:22:47.322Z,96141.78
2023-03-14T02:25:26.554Z,96135.53
2023-03-14T02:27:57.577Z,96149.16
2023-03-14T02:30:29.308Z,96144.94
2023-03-14T02:33:04.559Z,96133.25
2023-03-14T02:35:39.431Z,96142.59
2023-03-14T02:38:22.342Z,96148.72
2023-03-14T02:40:52.353Z,96136.44
2023-03-14T02:43:23.066Z,96136.78
2023-03-14T02:45:54.310Z,96124.53
2023-03-14T02:48:28.596Z,96131.91
2023-03-14T02:51:01.272Z,96128.16
2023-03-14T02:53:33.706Z,96123.72
2023-03-14T02:56:03.623Z,96120.31
2023-03-14T02:58:35.585Z,96116.47
2023-03-14T03:01:05.122Z,96116.47
2023-03-14T03:03:34.596Z,96112.28
2023-03-14T03:06:04.120Z,96109.88
2023-03-14T03:08:34.231Z,96115.69
2023-03-14T03:11:04.727Z,96115.91
2023-03-14T03:13:35.604Z,96106.72
2023-03-14T03:16:04.175Z,96095.25
2023-03-14T03:18:34.504Z,96101.72
2023-03-14T03:21:05.438Z,96092.53
2023-03-14T03:23:35.226Z,96085.97
2023-03-14T03:26:05.311Z,96090.13
2023-03-14T03:28:37.255Z,96093.00
2023-03-14T03:31:10.528Z,96094.25
2023-03-14T03:33:39.909Z,96087.19
2023-03-14T03:36:12.459Z,96088.00
2023-03-14T03:38:41.560Z,96076.75
2023-03-14T03:41:11.639Z,96073.03
2023-03-14T03:43:42.475Z,96074.59
2023-03-14T03:46:12.540Z,96064.16
2023-03-14T03:48:42.495Z,96058.94
2023-03-14T03:51:16.879Z,96064.63
2023-03-14T03:53:48.633Z,96055.44
2023-03-14T03:56:17.504Z,96055.19
2023-03-14T03:58:47.312Z,96050.22
2023-03-14T04:01:17.927Z,96057.81
2023-03-14T04:03:47.379Z,96054.66
2023-03-14T04:06:17.705Z,96054.66
2023-03-14T04:08:46.745Z,96048.88
2023-03-14T04:11:18.230Z,96047.63
2023-03-14T04:13:49.237Z,96038.00
2023-03-14T04:16:22.827Z,96041.06
2023-03-14T04:18:52.600Z,96034.97
2023-03-14T04:21:24.968Z,96044.47
2023-03-14T04:23:54.883Z,96039.00
2023-03-14T04:26:25.911Z,96037.44
2023-03-14T04:28:57.172Z,96028.25
2023-03-14T04:31:26.784Z,96032.69
2023-03-14T04:33:57.263Z,96021.22
2023-03-14T04:36:27.270Z,96042.00
2023-03-14T04:38:58.406Z,96039.06
2023-03-14T04:41:29.003Z,96029.63
2023-03-14T04:44:00.839Z,96041.09
2023-03-14T04:46:30.848Z,96018.66
2023-03-14T04:49:01.911Z,96027.03
2023-03-14T04:51:31.392Z,96019.53
2023-03-14T04:54:01.833Z,96022.16
2023-03-14T04:56:30.744Z,96021.94
2023-03-14T04:59:01.897Z,96017.59
2023-03-14T05:01:32.606Z,96008.97
2023-03-14T05:04:03.109Z,96008.97
2023-03-14T05:06:33.874Z,95996.50
2023-03-14T05:09:03.051Z,96004.56
2023-03-14T05:11:33.733Z,95989.38
2023-03-14T05:14:03.726Z,95988.09
2023-03-14T05:16:34.225Z,95981.31
2023-03-14T05:19:04.778Z,95973.25
2023-03-14T05:21:34.626Z,95973.72
2023-03-14T05:24:05.282Z,95954.91
2023-03-14T05:26:34.880Z,95949.69
2023-03-14T05:29:06.801Z,95947.06
2023-03-14T05:31:37.622Z,95945.28
2023-03-14T05:34:07.052Z,95933.47
2023-03-14T05:36:36.540Z,95933.72
2023-03-14T05:39:06.341Z,95937.00
2023-03-14T05:41:37.399Z,95935.75
2023-03-14T05:44:09.371Z,95937.31
2023-03-14T05:46:38.707Z,95943.13
2023-03-14T05:49:09.145Z,95938.66
2023-03-14T05:51:39.898Z,95940.63
2023-03-14T05:54:09.533Z,95929.19
2023-03-14T05:56:39.259Z,95926.09
2023-03-14T05:59:11.475Z,95923.59
2023-03-14T06:01:40.929Z,95924.06
2023-03-14T06:04:11.448Z,95916.47
2023-03-14T06:06:40.784Z,95926.91
2023-03-14T06:09:10.356Z,95918.84
2023-03-14T06:11:39.164Z,95924.41
2023-03-14T06:14:09.234Z,95918.84
2023-03-14T06:16:39.223Z,95935.06
2023-03-14T06:19:08.856Z,95937.13
2023-03-14T06:21:38.872Z,95937.78
2023-03-14T06:24:09.608Z,95932.91
2023-03-14T06:26:39.325Z,95937.31
2023-03-14T06:29:09.864Z,95932.13
2023-03-14T06:31:38.878Z,95944.28
2023-03-14T06:34:08.643Z,95936.19
2023-03-14T06:36:38.180Z,95933.13
2023-03-14T06:39:08.540Z,95932.38
2023-03-14T06:41:38.348Z,95925.63
2023-03-14T06:44:09.175Z,95936.53
2023-03-14T06:46:38.855Z,95936.53
2023-03-14T06:49:07.739Z,95938.66
2023-03-14T06:51:36.544Z,95939.47
2023-03-14T06:54:05.735Z,95930.75
2023-03-14T06:56:35.765Z,95928.72
2023-03-14T06:59:05.545Z,95924.53
2023-03-14T07:01:36.768Z,95930.31
2023-03-14T07:04:06.975Z,95926.44
2023-03-14T07:06:36.918Z,95925.63
2023-03-14T07:09:07.198Z,95914.88
2023-03-14T07:11:36.858Z,95926.69
2023-03-14T07:14:07.132Z,95928.81
2023-03-14T07:16:37.493Z,95927.16
2023-03-14T07:19:07.875Z,95940.19
2023-03-14T07:21:37.020Z,95928.50
2023-03-14T07:24:07.408Z,95931.44
2023-03-14T07:26:37.561Z,95937.19
2023-03-14T07:29:06.618Z,95941.41
2023-03-14T07:31:38.070Z,95941.47
2023-03-14T07:34:07.597Z,95952.16
2023-03-14T07:36:37.125Z,95938.09
2023-03-14T07:39:07.227Z,95945.69
2023-03-14T07:41:36.691Z,95942.06
2023-03-14T07:44:05.113Z,95941.94
2023-03-14T07:46:34.630Z,95954.19
2023-03-14T07:49:05.545Z,95945.13
2023-03-14T07:51:36.342Z,95945.34
2023-03-14T07:54:06.223Z,95944.31
2023-03-14T07:56:37.016Z,95946.69
2023-03-14T07:59:06.995Z,95945.34
2023-03-14T08:01:38.109Z,95951.34
2023-03-14T08:04:09.827Z,95959.28
2023-03-14T08:06:39.294Z,95962.25
2023-03-14T08:09:10.290Z,95960.66
2023-03-14T08:11:40.469Z,95965.41
2023-03-14T08:14:12.765Z,95965.72
2023-03-14T08:16:41.751Z,95965.41
2023-03-14T08:19:12.676Z,95976.63
2023-03-14T08:21:42.698Z,95961.28
2023-03-14T08:24:12.397Z,95966.84
2023-03-14T08:26:41.840Z,95960.69
2023-03-14T08:29:14.423Z,95972.25
2023-03-14T08:31:44.143Z,95971.78
2023-03-14T08:34:15.790Z,95971.31
2023-03-14T08:36:45.786Z,95969.28
2023-03-14T08:39:14.919Z,95974.03
2023-03-14T08:41:45.613Z,95965.16
2023-03-14T08:44:19.055Z,95971.97
2023-03-14T08:46:50.534Z,95975.16
2023-03-14T08:49:21.397Z,95966.75
2023-03-14T08:51:51.459Z,95966.84
2023-03-14T08:54:21.545Z,95968.41
2023-03-14T08:56:51.609Z,95957.47
2023-03-14T08:59:21.564Z,95965.78
2023-03-14T09:01:50.993Z,95979.53
2023-03-14T09:04:23.712Z,95979.63
2023-03-14T09:06:53.645Z,95979.16
2023-03-14T09:09:23.402Z,95979.16
2023-03-14T09:11:54.181Z,95978.94
2023-03-14T09:14:24.195Z,95985.56
2023-03-14T09:16:53.941Z,95986.94
2023-03-14T09:19:25.424Z,95980.97
2023-03-14T09:21:55.494Z,95980.97
2023-03-14T09:24:25.658Z,95983.13
2023-03-14T09:26:55.225Z,95985.81
2023-03-14T09:29:24.819Z,95977.75
2023-03-14T09:31:54.518Z,95981.22
2023-03-14T09:34:26.975Z,95995.00
2023-03-14T09:36:56.352Z,95991.91
2023-03-14T09:39:25.974Z,96003.25
2023-03-14T09:41:59.541Z,96002.78
2023-03-14T09:44:33.717Z,96003.91
2023-03-14T09:47:09.054Z,96007.53
2023-03-14T09:49:43.009Z,96006.50
2023-03-14T09:52:20.352Z,96006.81
2023-03-14T09:54:54.698Z,96012.28
2023-03-14T09:57:28.143Z,96016.00
2023-03-14T10:00:15.038Z,96011.09
2023-03-14T10:02:49.657Z,96011.41
2023-03-14T10:05:23.625Z,96016.09
2023-03-14T10:07:54.292Z,96017.66
2023-03-14T10:10:28.180Z,96014.56
2023-03-14T10:13:10.657Z,96017.75
2023-03-14T10:15:41.758Z,96020.69
2023-03-14T10:18:15.039Z,96026.41
2023-03-14T10:20:48.902Z,96024.47
2023-03-14T10:23:33.089Z,96025.59
2023-03-14T10:26:16.440Z,96038.09
2023-03-14T10:28:49.596Z,96040.72
2023-03-14T10:31:18.520Z,96053.88
2023-03-14T10:34:02.842Z,96065.34
2023-03-14T10:36:36.072Z,96069.47
2023-03-14T10:39:30.886Z,96113.41
2023-03-14T10:42:12.186Z,96145.03
2023-03-14T10:44:43.916Z,96131.13
2023-03-14T10:47:23.213Z,96152.63
2023-03-14T10:49:52.451Z,96162.84
2023-03-14T10:52:31.260Z,96186.38
2023-03-14T10:55:15.283Z,96179.00
2023-03-14T10:57:46.195Z,96191.06
2023-03-14T11:00:20.391Z,96214.56
2023-03-14T11:03:10.855Z,96208.88
2023-03-14T11:05:50.961Z,96223.31
2023-03-14T11:08:33.121Z,96246.00
2023-03-14T11:11:18.189Z,96259.50
2023-03-14T11:14:03.965Z,96276.97
2023-03-14T11:16:51.233Z,96284.00
2023-03-14T11:19:44.605Z,96286.00
2023-03-14T11:22:26.202Z,96287.72
2023-03-14T11:25:32.687Z,96305.75
2023-03-14T11:28:17.414Z,96301.31
2023-03-14T11:30:54.478Z,96318.72
2023-03-14T11:33:35.791Z,96333.66
2023-03-14T11:36:10.391Z,96333.06
2023-03-14T11:38:49.446Z,96333.56
2023-03-14T11:41:25.136Z,96353.53
2023-03-14T11:43:59.624Z,96361.72
2023-03-14T11:46:34.721Z,96365.78
2023-03-14T11:49:16.126Z,96376.38
2023-03-14T11:51:53.302Z,96379.94
2023-03-14T11:54:35.008Z,96383.69
2023-03-14T11:57:12.467Z,96388.59
2023-03-14T11:59:53.431Z,96397.59
2023-03-14T12:02:34.619Z,96407.84
2023-03-14T12:05:45.046Z,96420.91
2023-03-14T12:08:59.349Z,96439.31
2023-03-14T12:11:41.985Z,96433.53
2023-03-14T12:14:27.903Z,96461.94
2023-03-14T12:16:59.641Z,96449.91
2023-03-14T12:19:34.966Z,96465.66
2023-03-14T12:22:19.101Z,96496.16
2023-03-14T12:24:55.467Z,96490.78
2023-03-14T12:28:20.877Z,96510.78
2023-03-14T12:30:51.727Z,96533.34
2023-03-14T12:33:32.375Z,96523.72
2023-03-14T12:36:14.068Z,96535.72
2023-03-14T12:39:15.874Z,96540.28
2023-03-14T12:41:53.969Z,96572.84
2023-03-14T12:45:15.997Z,96574.75
2023-03-14T12:48:19.644Z,96576.53
2023-03-14T12:50:57.334Z,96599.84
2023-03-14T12:54:29.478Z,96593.78
2023-03-14T12:57:35.319Z,96612.22
2023-03-14T13:00:19.388Z,96623.44
2023-03-14T13:02:50.959Z,96641.06
2023-03-14T13:05:26.536Z,96641.03
2023-03-14T13:08:10.019Z,96635.00
2023-03-14T13:10:51.270Z,96643.44
2023-03-14T13:13:25.619Z,96650.25
2023-03-14T13:16:01.271Z,96641.88
2023-03-14T13:18:37.290Z,96649.34
2023-03-14T13:21:15.890Z,96639.91
2023-03-14T13:24:00.590Z,96656.19
2023-03-14T13:26:38.745Z,96661.94
2023-03-14T13:29:22.544Z,96658.09
2023-03-14T13:31:58.280Z,96664.66
2023-03-14T13:34:28.855Z,96673.25
2023-03-14T13:37:01.203Z,96680.22
2023-03-14T13:39:32.774Z,96683.78
2023-03-14T13:42:04.771Z,96678.19
2023-03-14T13:44:38.228Z,96694.59
2023-03-14T13:47:15.606Z,96687.38
2023-03-14T13:49:46.402Z,96690.19
2023-03-14T13:52:35.082Z,96707.44
2023-03-14T13:55:06.283Z,96715.06
2023-03-14T13:57:49.014Z,96723.63
2023-03-14T14:00:27.700Z,96724.59
2023-03-14T14:02:59.497Z,96726.59
2023-03-14T14:05:32.981Z,96738.22
2023-03-14T14:08:08.313Z,96750.44
2023-03-14T14:10:40.785Z,96747.97
2023-03-14T14:13:16.550Z,96773.16
2023-03-14T14:15:52.093Z,96768.88
2023-03-14T14:18:26.906Z,96770.84
2023-03-14T14:20:57.208Z,96775.53
2023-03-14T14:23:31.212Z,96778.44
2023-03-14T14:26:02.247Z,96783.25
2023-03-14T14:28:33.752Z,96792.75
2023-03-14T14:31:27.725Z,96802.03
2023-03-14T14:33:59.657Z,96795.88
2023-03-14T14:36:33.956Z,96798.66
2023-03-14T14:39:14.167Z,96797.06
2023-03-14T14:41:45.544Z,96797.66
2023-03-14T14:44:19.067Z,96801.03
2023-03-14T14:46:50.490Z,96805.59
2023-03-14T14:49:23.078Z,96801.19
2023-03-14T14:52:02.633Z,96806.97
2023-03-14T14:54:42.446Z,96811.31
2023-03-14T14:57:22.475Z,96811.31
2023-03-14T14:59:55.090Z,96802.28
2023-03-14T15:02:38.085Z,96809.69
2023-03-14T15:05:11.798Z,96819.84
2023-03-14T15:07:42.323Z,96815.16
2023-03-14T15:10:17.774Z,96822.69
2023-03-14T15:12:48.974Z,96830.47
2023-03-14T15:15:19.581Z,96829.06
2023-03-14T15:17:49.185Z,96824.44
2023-03-14T15:20:25.292Z,96839.31
2023-03-14T15:22:55.807Z,96838.94
2023-03-14T15:25:51.399Z,96831.31
2023-03-14T15:28:21.607Z,96836.53
2023-03-14T15:30:51.893Z,96831.91
2023-03-14T15:33:22.279Z,96837.25
2023-03-14T15:35:52.035Z,96848.41
2023-03-14T15:38:24.219Z,96858.06
2023-03-14T15:40:55.673Z,96851.19
2023-03-14T15:43:26.437Z,96850.91
2023-03-14T15:45:58.710Z,96852.22
2023-03-14T15:48:29.415Z,96860.81
2023-03-14T15:50:59.483Z,96858.44
2023-03-14T15:53:28.491Z,96865.03
2023-03-14T15:55:58.903Z,96864.03
2023-03-14T15:58:29.603Z,96867.38
2023-03-14T16:00:58.773Z,96864.59
2023-03-14T16:03:28.975Z,96867.38
2023-03-14T16:05:58.496Z,96876.78
2023-03-14T16:08:29.941Z,96874.84
2023-03-14T16:11:02.089Z,96883.91
2023-03-14T16:13:31.026Z,96889.19
2023-03-14T16:16:02.397Z,96888.66
2023-03-14T16:18:34.475Z,96886.50
2023-03-14T16:21:07.334Z,96902.69
2023-03-14T16:23:37.870Z,96912.94
2023-03-14T16:26:11.479Z,96907.72
2023-03-14T16:28:41.593Z,96923.47
2023-03-14T16:31:14.688Z,96924.91
2023-03-14T16:33:44.621Z,96932.00
2023-03-14T16:36:16.365Z,96937.03
2023-03-14T16:38:46.932Z,96939.06
2023-03-14T16:41:21.517Z,96956.19
2023-03-14T16:43:52.777Z,96955.78
2023-03-14T16:46:25.630Z,96964.03
2023-03-14T16:48:54.734Z,96975.72
2023-03-14T16:51:25.723Z,96985.34
2023-03-14T16:53:55.214Z,96980.75
2023-03-14T16:56:26.000Z,96990.41
2023-03-14T16:58:55.503Z,97000.06
2023-03-14T17:01:25.682Z,97011.09
2023-03-14T17:03:54.562Z,97007.53
2023-03-14T17:06:26.125Z,97019.97
2023-03-14T17:08:57.343Z,97028.59
2023-03-14T17:11:28.563Z,97033.41
2023-03-14T17:13:59.236Z,97038.22
2023-03-14T17:16:29.184Z,97050.66
2023-03-14T17:18:59.921Z,97054.50
2023-03-14T17:21:30.286Z,97048.84
2023-03-14T17:24:01.420Z,97073.34
2023-03-14T17:26:32.618Z,97077.75
2023-03-14T17:29:01.620Z,97085.78
2023-03-14T17:31:31.886Z,97088.97
2023-03-14T17:34:01.477Z,97090.16
2023-03-14T17:36:32.726Z,97095.78
2023-03-14T17:39:03.149Z,97105.56
2023-03-14T17:41:34.645Z,97109.97
2023-03-14T17:44:04.423Z,97111.34
2023-03-14T17:46:34.004Z,97119.50
2023-03-14T17:49:03.724Z,97125.84
2023-03-14T17:51:32.751Z,97135.66
2023-03-14T17:54:02.846Z,97143.66
2023-03-14T17:56:33.336Z,97154.25
2023-03-14T17:59:02.929Z,97161.09
2023-03-14T18:01:33.150Z,97173.25
2023-03-14T18:04:02.575Z,97173.81
2023-03-14T18:06:31.614Z,97185.56
2023-03-14T18:09:04.376Z,97197.59
2023-03-14T18:11:35.320Z,97199.56
2023-03-14T18:14:08.204Z,97221.78
2023-03-14T18:16:37.860Z,97231.56
2023-03-14T18:19:08.810Z,97237.88
2023-03-14T18:21:59.749Z,97254.41
2023-03-14T18:24:29.295Z,97261.31
2023-03-14T18:27:01.281Z,97264.69
2023-03-14T18:29:30.955Z,97283.50
2023-03-14T18:32:00.158Z,97287.84
2023-03-14T18:34:29.426Z,97302.94
2023-03-14T18:36:58.413Z,97314.50
2023-03-14T18:39:29.444Z,97331.00
2023-03-14T18:41:59.898Z,97350.28
2023-03-14T18:44:28.338Z,97357.00
2023-03-14T18:46:56.874Z,97369.91
2023-03-14T18:49:26.222Z,97375.34
2023-03-14T18:51:55.320Z,97374.91
2023-03-14T18:54:24.869Z,97388.69
2023-03-14T18:56:56.368Z,97399.50
2023-03-14T18:59:28.422Z,97396.09
2023-03-14T19:01:58.074Z,97400.47
2023-03-14T19:04:26.725Z,97412.44
2023-03-14T19:06:56.109Z,97411.38
2023-03-14T19:09:25.559Z,97419.41
2023-03-14T19:11:55.088Z,97431.63
2023-03-14T19:14:25.533Z,97440.06
2023-03-14T19:16:56.134Z,97447.19
2023-03-14T19:19:25.476Z,97443.97
2023-03-14T19:21:54.983Z,97452.94
2023-03-14T19:24:25.125Z,97454.59
2023-03-14T19:26:55.775Z,97468.72
2023-03-14T19:29:25.691Z,97478.44
2023-03-14T19:31:55.221Z,97483.41
2023-03-14T19:34:24.270Z,97491.59
2023-03-14T19:36:53.862Z,97500.66
2023-03-14T19:39:24.358Z,97499.03
2023-03-14T19:41:58.266Z,97508.78
2023-03-14T19:44:28.519Z,97518.81
2023-03-14T19:46:57.302Z,97523.00
2023-03-14T19:49:27.549Z,97533.91
2023-03-14T19:51:57.741Z,97541.19
2023-03-14T19:54:27.295Z,97544.13
2023-03-14T19:56:56.344Z,97542.50
2023-03-14T19:59:25.363Z,97545.91
2023-03-14T20:01:57.550Z,97543.81
2023-03-14T20:04:27.128Z,97555.47
2023-03-14T20:06:56.736Z,97536.97
2023-03-14T20:09:26.924Z,97534.38
2023-03-14T20:11:55.835Z,97520.13
2023-03-14T20:14:24.851Z,97509.41
2023-03-14T20:16:56.111Z,97516.72
2023-03-14T20:19:26.145Z,97522.53
2023-03-14T20:21:55.670Z,97525.94
2023-03-14T20:24:25.973Z,97539.22
2023-03-14T20:26:55.949Z,97533.75
2023-03-14T20:29:26.169Z,97536.69
2023-03-14T20:31:57.538Z,97540.25
2023-03-14T20:34:27.862Z,97543.03
2023-03-14T20:36:57.687Z,97547.25
2023-03-14T20:39:27.293Z,97543.81
2023-03-14T20:41:56.318Z,97552.72
2023-03-14T20:44:25.577Z,97554.84
2023-03-14T20:46:57.754Z,97562.28
2023-03-14T20:49:27.621Z,97570.53
2023-03-14T20:51:58.202Z,97581.88
2023-03-14T20:54:28.088Z,97587.84
2023-03-14T20:56:57.576Z,97598.22
2023-03-14T20:59:28.153Z,97597.25
2023-03-14T21:02:00.064Z,97602.91
2023-03-14T21:04:30.703Z,97605.69
2023-03-14T21:07:00.165Z,97610.53
2023-03-14T21:09:29.645Z,97613.94
2023-03-14T21:11:58.431Z,97612.50
2023-03-14T21:14:28.019Z,97626.72
2023-03-14T21:17:00.857Z,97618.16
2023-03-14T21:19:34.722Z,97628.69
2023-03-14T21:22:07.139Z,97631.59
2023-03-14T21:24:36.317Z,97636.78
2023-03-14T21:27:06.282Z,97633.06
2023-03-14T21:29:37.282Z,97635.97
2023-03-14T21:32:08.507Z,97645.53
2023-03-14T21:34:37.363Z,97651.03
2023-03-14T21:37:05.900Z,97658.47
2023-03-14T21:39:35.822Z,97668.34
2023-03-14T21:42:05.701Z,97674.97
2023-03-14T21:44:37.806Z,97669.63
2023-03-14T21:47:09.536Z,97677.88
2023-03-14T21:49:40.466Z,97681.75
2023-03-14T21:52:11.741Z,97692.78
2023-03-14T21:54:43.424Z,97699.56
2023-03-14T21:57:14.653Z,97710.88
2023-03-14T21:59:45.889Z,97716.56
2023-03-14T22:02:20.763Z,97720.59
2023-03-14T22:04:49.900Z,97725.00
2023-03-14T22:07:19.921Z,97737.13
2023-03-14T22:09:49.031Z,97735.81
2023-03-14T22:12:19.692Z,97736.94
2023-03-14T22:14:50.326Z,97736.13
2023-03-14T22:17:21.549Z,97737.56
2023-03-14T22:19:51.930Z,97735.13
2023-03-14T22:22:21.711Z,97739.50
2023-03-14T22:24:50.788Z,97742.56
2023-03-14T22:27:21.116Z,97739.63
2023-03-14T22:29:50.777Z,97745.91
2023-03-14T22:32:21.646Z,97748.81
2023-03-14T22:34:51.527Z,97754.69
2023-03-14T22:37:21.081Z,97759.03
2023-03-14T22:39:51.573Z,97769.06
2023-03-14T22:42:21.554Z,97765.03
2023-03-14T22:44:53.176Z,97767.38
2023-03-14T22:47:24.368Z,97772.88
2023-03-14T22:49:55.874Z,97776.88
2023-03-14T22:52:26.023Z,97784.34
2023-03-14T22:54:58.207Z,97786.47
2023-03-14T22:57:28.833Z,97789.53
2023-03-14T22:59:58.322Z,97800.22
2023-03-14T23:02:29.782Z,97797.13
2023-03-14T23:04:58.740Z,97806.50
2023-03-14T23:07:28.759Z,97806.66
2023-03-14T23:09:58.175Z,97801.78
2023-03-14T23:12:27.673Z,97816.16
2023-03-14T23:14:57.397Z,97812.91
2023-03-14T23:17:28.655Z,97811.75
2023-03-14T23:20:00.173Z,97822.72
2023-03-14T23:22:33.476Z,97826.25
2023-03-14T23:25:03.787Z,97828.19
2023-03-14T23:27:33.368Z,97825.09
2023-03-14T23:30:03.531Z,97826.84
2023-03-14T23:32:34.874Z,97829.88
2023-03-14T23:35:04.525Z,97837.56
2023-03-14T23:37:34.550Z,97834.66
2023-03-14T23:40:04.066Z,97837.38
2023-03-14T23:42:34.226Z,97841.59
2023-03-14T23:45:04.059Z,97846.91
2023-03-14T23:47:34.985Z,97852.22
2023-03-14T23:50:05.763Z,97853.19
2023-03-14T23:52:34.746Z,97861.25
2023-03-14T23:55:04.878Z,97858.28
2023-03-14T23:57:33.289Z,97864.22
